sensor_id;sensor_type;location;lat;lon;timestamp;pressure;altitude;pressure_sealevel;temperature;humidity
52947;BME280;45776;40.400;17.260;2023-02-03T00:00:48;108023.28;;;19.23;100.00
52947;BME280;45776;40.400;17.260;2023-02-03T00:03:14;107783.59;;;18.81;100.00
52947;BME280;45776;40.400;17.260;2023-02-03T00:05:40;107969.47;;;19.13;100.00
52947;BME280;45776;40.400;17.260;2023-02-03T00:08:06;108067.00;;;19.30;100.00
52947;BME280;45776;40.400;17.260;2023-02-03T00:10:37;107724.59;;;18.70;100.00
52947;BME280;45776;40.400;17.260;2023-02-03T00:13:04;108005.09;;;19.18;100.00
52947;BME280;45776;40.400;17.260;2023-02-03T00:15:30;107592.19;;;18.45;100.00
52947;BME280;45776;40.400;17.260;2023-02-03T00:17:56;107808.97;;;18.81;100.00
52947;BME280;45776;40.400;17.260;2023-02-03T00:20:21;107806.16;;;18.79;100.00
52947;BME280;45776;40.400;17.260;2023-02-03T00:22:47;107758.91;;;18.72;100.00
52947;BME280;45776;40.400;17.260;2023-02-03T00:25:13;107808.03;;;18.80;100.00
52947;BME280;45776;40.400;17.260;2023-02-03T00:27:38;107767.00;;;18.73;100.00
52947;BME280;45776;40.400;17.260;2023-02-03T00:30:04;107742.81;;;18.69;100.00
52947;BME280;45776;40.400;17.260;2023-02-03T00:32:30;107598.38;;;18.45;100.00
52947;BME280;45776;40.400;17.260;2023-02-03T00:34:55;107733.38;;;18.71;100.00
52947;BME280;45776;40.400;17.260;2023-02-03T00:37:21;107670.09;;;18.60;100.00
52947;BME280;45776;40.400;17.260;2023-02-03T00:39:48;107828.97;;;18.95;100.00
52947;BME280;45776;40.400;17.260;2023-02-03T00:42:13;107792.72;;;18.92;100.00
52947;BME280;45776;40.400;17.260;2023-02-03T00:44:39;107748.69;;;18.82;100.00
52947;BME280;45776;40.400;17.260;2023-02-03T00:47:04;107562.53;;;18.46;100.00
52947;BME280;45776;40.400;17.260;2023-02-03T00:49:30;107883.50;;;19.04;100.00
52947;BME280;45776;40.400;17.260;2023-02-03T00:51:55;107705.78;;;18.74;100.00
52947;BME280;45776;40.400;17.260;2023-02-03T00:54:21;107446.31;;;18.24;100.00
52947;BME280;45776;40.400;17.260;2023-02-03T00:56:46;107254.81;;;17.85;100.00
52947;BME280;45776;40.400;17.260;2023-02-03T00:59:12;107191.88;;;17.69;100.00
52947;BME280;45776;40.400;17.260;2023-02-03T01:01:37;107013.50;;;17.35;100.00
52947;BME280;45776;40.400;17.260;2023-02-03T01:04:03;106923.38;;;17.17;100.00
52947;BME280;45776;40.400;17.260;2023-02-03T01:06:29;107111.25;;;17.50;100.00
52947;BME280;45776;40.400;17.260;2023-02-03T01:08:55;107171.78;;;17.60;100.00
52947;BME280;45776;40.400;17.260;2023-02-03T01:11:23;107091.94;;;17.49;100.00
52947;BME280;45776;40.400;17.260;2023-02-03T01:13:49;107220.63;;;17.76;100.00
52947;BME280;45776;40.400;17.260;2023-02-03T01:16:17;107279.88;;;17.90;100.00
52947;BME280;45776;40.400;17.260;2023-02-03T01:18:44;107118.69;;;17.63;100.00
52947;BME280;45776;40.400;17.260;2023-02-03T01:21:16;107200.59;;;17.76;100.00
52947;BME280;45776;40.400;17.260;2023-02-03T01:23:42;107257.59;;;17.86;100.00
52947;BME280;45776;40.400;17.260;2023-02-03T01:26:10;107547.19;;;18.42;99.72
52947;BME280;45776;40.400;17.260;2023-02-03T01:28:36;107875.03;;;19.07;95.75
52947;BME280;45776;40.400;17.260;2023-02-03T01:31:17;107965.50;;;19.32;91.99
52947;BME280;45776;40.400;17.260;2023-02-03T01:33:43;107759.72;;;19.03;87.81
52947;BME280;45776;40.400;17.260;2023-02-03T01:36:14;107742.28;;;19.03;86.76
52947;BME280;45776;40.400;17.260;2023-02-03T01:38:40;107753.13;;;19.06;86.58
52947;BME280;45776;40.400;17.260;2023-02-03T01:41:09;107713.19;;;19.02;85.85
52947;BME280;45776;40.400;17.260;2023-02-03T01:43:40;107495.16;;;18.63;84.71
52947;BME280;45776;40.400;17.260;2023-02-03T01:46:35;107476.25;;;18.58;87.98
52947;BME280;45776;40.400;17.260;2023-02-03T01:49:15;107198.00;;;18.01;89.67
52947;BME280;45776;40.400;17.260;2023-02-03T01:51:43;106984.75;;;17.61;91.17
52947;BME280;45776;40.400;17.260;2023-02-03T01:54:13;107047.94;;;17.72;90.61
52947;BME280;45776;40.400;17.260;2023-02-03T01:56:44;106860.66;;;17.36;91.63
52947;BME280;45776;40.400;17.260;2023-02-03T01:59:13;106951.53;;;17.44;96.69
52947;BME280;45776;40.400;17.260;2023-02-03T02:01:40;106763.44;;;17.08;99.00
52947;BME280;45776;40.400;17.260;2023-02-03T02:04:05;106951.22;;;17.41;99.13
52947;BME280;45776;40.400;17.260;2023-02-03T02:06:32;106876.34;;;17.27;99.19
52947;BME280;45776;40.400;17.260;2023-02-03T02:08:58;106794.44;;;17.12;99.17
52947;BME280;45776;40.400;17.260;2023-02-03T02:11:25;106720.25;;;16.96;100.00
52947;BME280;45776;40.400;17.260;2023-02-03T02:13:52;107110.56;;;17.69;100.00
52947;BME280;45776;40.400;17.260;2023-02-03T02:16:44;107019.75;;;17.53;98.56
52947;BME280;45776;40.400;17.260;2023-02-03T02:27:01;107079.19;;;17.61;100.00
52947;BME280;45776;40.400;17.260;2023-02-03T02:32:45;107057.78;;;17.65;95.01
52947;BME280;45776;40.400;17.260;2023-02-03T02:38:02;107010.69;;;17.58;93.55
52947;BME280;45776;40.400;17.260;2023-02-03T02:40:36;106901.84;;;17.37;94.25
52947;BME280;45776;40.400;17.260;2023-02-03T02:43:33;107153.09;;;17.82;95.04
52947;BME280;45776;40.400;17.260;2023-02-03T02:46:08;106971.63;;;17.53;90.95
52947;BME280;45776;40.400;17.260;2023-02-03T02:51:20;106951.09;;;17.48;93.15
52947;BME280;45776;40.400;17.260;2023-02-03T02:53:58;106770.69;;;17.11;95.77
52947;BME280;45776;40.400;17.260;2023-02-03T02:56:26;106864.81;;;17.25;96.53
52947;BME280;45776;40.400;17.260;2023-02-03T02:58:55;106942.72;;;17.35;100.00
52947;BME280;45776;40.400;17.260;2023-02-03T03:01:22;106640.97;;;16.81;100.00
52947;BME280;45776;40.400;17.260;2023-02-03T03:03:47;106820.31;;;17.09;100.00
52947;BME280;45776;40.400;17.260;2023-02-03T03:06:32;106503.66;;;16.52;100.00
52947;BME280;45776;40.400;17.260;2023-02-03T03:11:32;106387.09;;;16.30;100.00
52947;BME280;45776;40.400;17.260;2023-02-03T03:13:58;106445.47;;;16.37;100.00
52947;BME280;45776;40.400;17.260;2023-02-03T03:16:26;106561.88;;;16.59;100.00
52947;BME280;45776;40.400;17.260;2023-02-03T03:18:59;106289.38;;;16.12;100.00
52947;BME280;45776;40.400;17.260;2023-02-03T03:21:31;106491.81;;;16.47;100.00
52947;BME280;45776;40.400;17.260;2023-02-03T03:24:00;106727.59;;;16.91;100.00
52947;BME280;45776;40.400;17.260;2023-02-03T03:26:51;106576.06;;;16.61;100.00
52947;BME280;45776;40.400;17.260;2023-02-03T03:29:24;106650.06;;;16.76;100.00
52947;BME280;45776;40.400;17.260;2023-02-03T03:31:51;106651.91;;;16.77;99.89
52947;BME280;45776;40.400;17.260;2023-02-03T03:34:17;106541.75;;;16.58;99.19
52947;BME280;45776;40.400;17.260;2023-02-03T03:36:52;106585.34;;;16.66;97.77
52947;BME280;45776;40.400;17.260;2023-02-03T03:39:33;106580.09;;;16.66;100.00
52947;BME280;45776;40.400;17.260;2023-02-03T03:42:08;106859.03;;;17.12;100.00
52947;BME280;45776;40.400;17.260;2023-02-03T03:47:48;107008.75;;;17.40;100.00
52947;BME280;45776;40.400;17.260;2023-02-03T03:50:22;107131.50;;;17.60;100.00
52947;BME280;45776;40.400;17.260;2023-02-03T03:52:50;107086.09;;;17.52;100.00
52947;BME280;45776;40.400;17.260;2023-02-03T03:55:18;107018.13;;;17.38;100.00
52947;BME280;45776;40.400;17.260;2023-02-03T03:58:03;107043.94;;;17.42;100.00
52947;BME280;45776;40.400;17.260;2023-02-03T04:00:32;107011.66;;;17.34;100.00
52947;BME280;45776;40.400;17.260;2023-02-03T04:03:04;107213.63;;;17.67;100.00
52947;BME280;45776;40.400;17.260;2023-02-03T04:05:31;107267.44;;;17.80;100.00
52947;BME280;45776;40.400;17.260;2023-02-03T04:07:58;107310.09;;;17.86;100.00
52947;BME280;45776;40.400;17.260;2023-02-03T04:10:31;107317.06;;;17.86;100.00
52947;BME280;45776;40.400;17.260;2023-02-03T04:12:57;107439.56;;;18.10;100.00
52947;BME280;45776;40.400;17.260;2023-02-03T04:15:23;107196.97;;;17.67;100.00
52947;BME280;45776;40.400;17.260;2023-02-03T04:17:49;107269.72;;;17.77;100.00
52947;BME280;45776;40.400;17.260;2023-02-03T04:20:14;107234.63;;;17.67;100.00
52947;BME280;45776;40.400;17.260;2023-02-03T04:22:40;107055.47;;;17.35;100.00
52947;BME280;45776;40.400;17.260;2023-02-03T04:25:06;106823.06;;;16.93;100.00
52947;BME280;45776;40.400;17.260;2023-02-03T04:27:32;106953.13;;;17.17;100.00
52947;BME280;45776;40.400;17.260;2023-02-03T04:29:58;106930.75;;;17.12;100.00
52947;BME280;45776;40.400;17.260;2023-02-03T04:32:23;106445.44;;;16.20;100.00
52947;BME280;45776;40.400;17.260;2023-02-03T04:34:49;106247.03;;;15.81;100.00
52947;BME280;45776;40.400;17.260;2023-02-03T04:37:14;106300.44;;;15.91;100.00
52947;BME280;45776;40.400;17.260;2023-02-03T04:39:40;106278.28;;;15.88;100.00
52947;BME280;45776;40.400;17.260;2023-02-03T04:42:05;106500.41;;;16.29;100.00
52947;BME280;45776;40.400;17.260;2023-02-03T04:44:31;106169.19;;;15.69;100.00
52947;BME280;45776;40.400;17.260;2023-02-03T04:46:56;105825.13;;;15.07;100.00
52947;BME280;45776;40.400;17.260;2023-02-03T04:49:22;106079.09;;;15.48;100.00
52947;BME280;45776;40.400;17.260;2023-02-03T04:51:48;106071.25;;;15.48;100.00
52947;BME280;45776;40.400;17.260;2023-02-03T04:54:14;106326.91;;;15.95;100.00
52947;BME280;45776;40.400;17.260;2023-02-03T04:56:39;106473.75;;;16.24;100.00
52947;BME280;45776;40.400;17.260;2023-02-03T04:59:05;106337.81;;;15.99;100.00
52947;BME280;45776;40.400;17.260;2023-02-03T05:01:31;106327.06;;;15.96;100.00
52947;BME280;45776;40.400;17.260;2023-02-03T05:03:56;106469.91;;;16.20;100.00
52947;BME280;45776;40.400;17.260;2023-02-03T05:06:26;106423.56;;;16.11;100.00
52947;BME280;45776;40.400;17.260;2023-02-03T05:08:53;106475.91;;;16.19;100.00
52947;BME280;45776;40.400;17.260;2023-02-03T05:11:18;106475.63;;;16.16;100.00
52947;BME280;45776;40.400;17.260;2023-02-03T05:13:44;106713.97;;;16.60;100.00
52947;BME280;45776;40.400;17.260;2023-02-03T05:16:09;106681.44;;;16.58;100.00
52947;BME280;45776;40.400;17.260;2023-02-03T05:18:35;106620.25;;;16.49;100.00
52947;BME280;45776;40.400;17.260;2023-02-03T05:21:00;106588.06;;;16.41;99.91
52947;BME280;45776;40.400;17.260;2023-02-03T05:23:26;106539.38;;;16.34;97.73
52947;BME280;45776;40.400;17.260;2023-02-03T05:25:51;106525.81;;;16.38;92.89
52947;BME280;45776;40.400;17.260;2023-02-03T05:28:17;106736.16;;;16.72;94.32
52947;BME280;45776;40.400;17.260;2023-02-03T05:30:42;106548.19;;;16.44;92.01
52947;BME280;45776;40.400;17.260;2023-02-03T05:33:07;106364.31;;;16.11;91.22
52947;BME280;45776;40.400;17.260;2023-02-03T05:35:33;106368.78;;;16.12;88.72
52947;BME280;45776;40.400;17.260;2023-02-03T05:37:59;106707.53;;;16.74;87.47
52947;BME280;45776;40.400;17.260;2023-02-03T05:40:25;106588.88;;;16.58;85.84
52947;BME280;45776;40.400;17.260;2023-02-03T05:43:09;106665.63;;;16.74;84.19
52947;BME280;45776;40.400;17.260;2023-02-03T05:45:35;106871.69;;;17.16;81.66
52947;BME280;45776;40.400;17.260;2023-02-03T05:48:01;106576.25;;;16.62;82.81
52947;BME280;45776;40.400;17.260;2023-02-03T05:50:30;106383.88;;;16.23;83.71
52947;BME280;45776;40.400;17.260;2023-02-03T05:52:59;106759.47;;;16.87;85.32
52947;BME280;45776;40.400;17.260;2023-02-03T05:55:26;106758.91;;;16.90;84.72
52947;BME280;45776;40.400;17.260;2023-02-03T05:57:52;106531.69;;;16.53;81.87
52947;BME280;45776;40.400;17.260;2023-02-03T06:00:18;106687.34;;;16.82;79.85
52947;BME280;45776;40.400;17.260;2023-02-03T06:02:52;106480.88;;;16.51;78.72
52947;BME280;45776;40.400;17.260;2023-02-03T06:05:19;106620.16;;;16.74;79.42
52947;BME280;45776;40.400;17.260;2023-02-03T06:07:44;106824.97;;;17.12;77.88
52947;BME280;45776;40.400;17.260;2023-02-03T06:10:10;106848.88;;;17.15;78.92
52947;BME280;45776;40.400;17.260;2023-02-03T06:12:36;106891.03;;;17.25;78.14
52947;BME280;45776;40.400;17.260;2023-02-03T06:15:02;106910.75;;;17.30;77.91
52947;BME280;45776;40.400;17.260;2023-02-03T06:17:28;106921.25;;;17.30;78.10
52947;BME280;45776;40.400;17.260;2023-02-03T06:19:53;106944.22;;;17.33;78.13
52947;BME280;45776;40.400;17.260;2023-02-03T06:22:19;106734.13;;;16.95;78.70
52947;BME280;45776;40.400;17.260;2023-02-03T06:24:44;106425.56;;;16.39;77.56
52947;BME280;45776;40.400;17.260;2023-02-03T06:27:12;106656.88;;;16.82;77.61
52947;BME280;45776;40.400;17.260;2023-02-03T06:29:38;106577.31;;;16.64;77.68
52947;BME280;45776;40.400;17.260;2023-02-03T06:32:03;106632.81;;;16.78;75.83
52947;BME280;45776;40.400;17.260;2023-02-03T06:34:29;106496.41;;;16.59;73.86
52947;BME280;45776;40.400;17.260;2023-02-03T06:36:55;106437.31;;;16.52;71.49
52947;BME280;45776;40.400;17.260;2023-02-03T06:39:20;106691.16;;;17.01;69.69
52947;BME280;45776;40.400;17.260;2023-02-03T06:41:45;106684.97;;;17.01;69.24
52947;BME280;45776;40.400;17.260;2023-02-03T06:44:11;106717.19;;;17.09;67.82
52947;BME280;45776;40.400;17.260;2023-02-03T06:46:36;107027.38;;;17.67;66.81
52947;BME280;45776;40.400;17.260;2023-02-03T06:49:02;107347.19;;;18.30;65.21
52947;BME280;45776;40.400;17.260;2023-02-03T06:51:27;107430.41;;;18.47;64.44
52947;BME280;45776;40.400;17.260;2023-02-03T06:53:53;107217.94;;;18.08;64.56
52947;BME280;45776;40.400;17.260;2023-02-03T06:56:18;107241.91;;;18.11;64.48
52947;BME280;45776;40.400;17.260;2023-02-03T06:58:43;107308.25;;;18.26;63.99
52947;BME280;45776;40.400;17.260;2023-02-03T07:01:09;106764.72;;;17.21;65.47
52947;BME280;45776;40.400;17.260;2023-02-03T07:03:35;106854.94;;;17.31;66.97
52947;BME280;45776;40.400;17.260;2023-02-03T07:06:00;106771.94;;;17.14;66.77
52947;BME280;45776;40.400;17.260;2023-02-03T07:08:25;106614.63;;;16.88;66.05
52947;BME280;45776;40.400;17.260;2023-02-03T07:10:54;106839.53;;;17.34;64.29
52947;BME280;45776;40.400;17.260;2023-02-03T07:13:19;107098.41;;;17.78;65.37
52947;BME280;45776;40.400;17.260;2023-02-03T07:15:45;106959.91;;;17.58;63.97
52947;BME280;45776;40.400;17.260;2023-02-03T07:18:10;106871.78;;;17.42;63.88
52947;BME280;45776;40.400;17.260;2023-02-03T07:20:35;106953.00;;;17.58;63.11
52947;BME280;45776;40.400;17.260;2023-02-03T07:23:01;106896.28;;;17.43;64.09
52947;BME280;45776;40.400;17.260;2023-02-03T07:25:26;107005.31;;;17.65;63.47
52947;BME280;45776;40.400;17.260;2023-02-03T07:27:52;106963.16;;;17.55;64.49
52947;BME280;45776;40.400;17.260;2023-02-03T07:30:18;106814.03;;;17.25;65.73
52947;BME280;45776;40.400;17.260;2023-02-03T07:32:48;106703.78;;;16.97;68.65
52947;BME280;45776;40.400;17.260;2023-02-03T07:35:14;106969.56;;;17.41;69.57
52947;BME280;45776;40.400;17.260;2023-02-03T07:37:40;106951.50;;;17.35;70.83
52947;BME280;45776;40.400;17.260;2023-02-03T07:40:06;106981.00;;;17.42;70.01
52947;BME280;45776;40.400;17.260;2023-02-03T07:42:31;107009.72;;;17.49;69.31
52947;BME280;45776;40.400;17.260;2023-02-03T07:44:57;107007.88;;;17.57;66.61
52947;BME280;45776;40.400;17.260;2023-02-03T07:47:22;107058.69;;;17.66;67.50
52947;BME280;45776;40.400;17.260;2023-02-03T07:49:48;106652.53;;;16.92;66.80
52947;BME280;45776;40.400;17.260;2023-02-03T07:52:13;107026.88;;;17.63;66.51
52947;BME280;45776;40.400;17.260;2023-02-03T07:54:39;107161.75;;;17.90;65.89
52947;BME280;45776;40.400;17.260;2023-02-03T07:57:04;107507.69;;;18.49;67.48
52947;BME280;45776;40.400;17.260;2023-02-03T07:59:29;107142.91;;;17.85;66.51
52947;BME280;45776;40.400;17.260;2023-02-03T08:01:55;107166.78;;;17.79;70.24
52947;BME280;45776;40.400;17.260;2023-02-03T08:04:21;107395.31;;;18.22;69.11
52947;BME280;45776;40.400;17.260;2023-02-03T08:06:47;107463.25;;;18.35;68.65
52947;BME280;45776;40.400;17.260;2023-02-03T08:09:14;107556.44;;;18.54;68.97
52947;BME280;45776;40.400;17.260;2023-02-03T08:11:39;107513.50;;;18.38;73.60
52947;BME280;45776;40.400;17.260;2023-02-03T08:14:05;107670.09;;;18.60;73.89
52947;BME280;45776;40.400;17.260;2023-02-03T08:16:30;107620.66;;;18.49;75.34
52947;BME280;45776;40.400;17.260;2023-02-03T08:18:56;107718.22;;;18.68;74.77
52947;BME280;45776;40.400;17.260;2023-02-03T08:21:22;107415.31;;;18.12;76.85
52947;BME280;45776;40.400;17.260;2023-02-03T08:23:48;107072.00;;;17.43;80.26
52947;BME280;45776;40.400;17.260;2023-02-03T08:26:13;107138.25;;;17.49;84.08
52947;BME280;45776;40.400;17.260;2023-02-03T08:28:39;107484.03;;;18.08;85.03
52947;BME280;45776;40.400;17.260;2023-02-03T08:31:11;107513.75;;;18.16;82.71
52947;BME280;45776;40.400;17.260;2023-02-03T08:33:37;107550.75;;;18.26;81.03
52947;BME280;45776;40.400;17.260;2023-02-03T08:36:04;107477.06;;;18.09;82.52
52947;BME280;45776;40.400;17.260;2023-02-03T08:38:30;107730.16;;;18.57;81.35
52947;BME280;45776;40.400;17.260;2023-02-03T08:40:56;107848.41;;;18.81;80.77
52947;BME280;45776;40.400;17.260;2023-02-03T08:43:21;107470.47;;;18.12;81.71
52947;BME280;45776;40.400;17.260;2023-02-03T08:45:47;107821.84;;;18.70;86.11
52947;BME280;45776;40.400;17.260;2023-02-03T08:48:12;107756.44;;;18.57;85.46
52947;BME280;45776;40.400;17.260;2023-02-03T08:50:41;107983.31;;;18.96;86.74
52947;BME280;45776;40.400;17.260;2023-02-03T08:53:07;108089.25;;;19.18;86.63
52947;BME280;45776;40.400;17.260;2023-02-03T08:55:33;107862.91;;;18.77;86.48
52947;BME280;45776;40.400;17.260;2023-02-03T08:57:58;108013.50;;;18.99;89.70
52947;BME280;45776;40.400;17.260;2023-02-03T09:00:24;108012.75;;;19.00;88.59
52947;BME280;45776;40.400;17.260;2023-02-03T09:02:50;107955.75;;;18.85;93.23
52947;BME280;45776;40.400;17.260;2023-02-03T09:05:15;108032.69;;;18.98;91.74
52947;BME280;45776;40.400;17.260;2023-02-03T09:07:43;108325.66;;;19.52;91.17
52947;BME280;45776;40.400;17.260;2023-02-03T09:10:09;108251.09;;;19.45;88.90
52947;BME280;45776;40.400;17.260;2023-02-03T09:12:34;108020.63;;;19.00;93.05
52947;BME280;45776;40.400;17.260;2023-02-03T09:15:00;108072.25;;;19.07;94.19
52947;BME280;45776;40.400;17.260;2023-02-03T09:17:25;108205.50;;;19.30;96.03
52947;BME280;45776;40.400;17.260;2023-02-03T09:19:52;107874.56;;;18.72;95.66
52947;BME280;45776;40.400;17.260;2023-02-03T09:22:17;108420.31;;;19.67;96.87
52947;BME280;45776;40.400;17.260;2023-02-03T09:24:43;107850.97;;;18.65;96.34
52947;BME280;45776;40.400;17.260;2023-02-03T09:27:08;108220.16;;;19.28;99.35
52947;BME280;45776;40.400;17.260;2023-02-03T09:29:34;107782.44;;;18.47;100.00
52947;BME280;45776;40.400;17.260;2023-02-03T09:31:59;108300.53;;;19.40;98.55
52947;BME280;45776;40.400;17.260;2023-02-03T09:34:26;107992.72;;;18.94;91.69
52947;BME280;45776;40.400;17.260;2023-02-03T09:36:51;107956.34;;;18.82;94.62
52947;BME280;45776;40.400;17.260;2023-02-03T09:39:17;107834.88;;;18.62;92.96
52947;BME280;45776;40.400;17.260;2023-02-03T09:44:43;107340.84;;;17.71;93.98
52947;BME280;45776;40.400;17.260;2023-02-03T09:47:18;108000.97;;;18.89;93.51
52947;BME280;45776;40.400;17.260;2023-02-03T09:49:50;107460.34;;;17.92;93.21
52947;BME280;45776;40.400;17.260;2023-02-03T09:52:18;107619.66;;;18.24;94.39
52947;BME280;45776;40.400;17.260;2023-02-03T09:57:27;107659.31;;;18.34;90.65
52947;BME280;45776;40.400;17.260;2023-02-03T09:59:56;108030.00;;;19.05;86.03
52947;BME280;45776;40.400;17.260;2023-02-03T10:05:46;107996.97;;;19.00;88.62
52947;BME280;45776;40.400;17.260;2023-02-03T10:08:33;108114.97;;;19.20;nan
52947;BME280;45776;40.400;17.260;2023-02-03T10:19:18;108277.41;;;19.68;80.44
52947;BME280;45776;40.400;17.260;2023-02-03T10:21:54;108341.88;;;19.79;80.11
52947;BME280;45776;40.400;17.260;2023-02-03T10:24:39;107975.41;;;19.19;77.05
52947;BME280;45776;40.400;17.260;2023-02-03T10:27:18;108216.19;;;19.62;77.12
52947;BME280;45776;40.400;17.260;2023-02-03T10:29:47;107767.59;;;18.87;75.89
52947;BME280;45776;40.400;17.260;2023-02-03T10:32:17;107701.09;;;18.72;77.70
52947;BME280;45776;40.400;17.260;2023-02-03T10:34:46;107754.88;;;18.83;77.03
52947;BME280;45776;40.400;17.260;2023-02-03T10:37:28;108055.53;;;19.30;79.10
52947;BME280;45776;40.400;17.260;2023-02-03T10:39:54;108391.63;;;19.99;76.41
52947;BME280;45776;40.400;17.260;2023-02-03T10:42:21;108126.00;;;19.55;74.07
52947;BME280;45776;40.400;17.260;2023-02-03T10:44:56;107982.41;;;19.34;71.81
52947;BME280;45776;40.400;17.260;2023-02-03T10:49:55;108266.03;;;19.91;71.78
52947;BME280;45776;40.400;17.260;2023-02-03T10:52:34;108134.34;;;19.67;71.09
52947;BME280;45776;40.400;17.260;2023-02-03T10:55:27;108023.34;;;19.55;69.61
52947;BME280;45776;40.400;17.260;2023-02-03T10:57:54;108096.81;;;19.61;72.40
52947;BME280;45776;40.400;17.260;2023-02-03T11:02:54;108420.47;;;20.21;72.29
52947;BME280;45776;40.400;17.260;2023-02-03T11:05:22;108020.03;;;19.49;71.50
52947;BME280;45776;40.400;17.260;2023-02-03T11:07:50;107891.75;;;19.23;71.82
52947;BME280;45776;40.400;17.260;2023-02-03T11:13:22;108131.13;;;19.70;69.62
52947;BME280;45776;40.400;17.260;2023-02-03T11:16:13;108422.28;;;20.29;68.56
52947;BME280;45776;40.400;17.260;2023-02-03T11:19:06;108076.44;;;19.67;69.11
52947;BME280;45776;40.400;17.260;2023-02-03T11:21:43;107693.53;;;18.91;72.25
52947;BME280;45776;40.400;17.260;2023-02-03T11:24:22;107790.53;;;19.04;74.39
52947;BME280;45776;40.400;17.260;2023-02-03T11:27:00;108401.06;;;20.20;71.04
52947;BME280;45776;40.400;17.260;2023-02-03T11:29:39;108257.88;;;19.96;70.95
52947;BME280;45776;40.400;17.260;2023-02-03T11:32:28;108109.59;;;19.81;67.27
52947;BME280;45776;40.400;17.260;2023-02-03T11:35:01;108515.81;;;20.56;67.76
52947;BME280;45776;40.400;17.260;2023-02-03T11:37:33;108594.41;;;20.82;64.69
52947;BME280;45776;40.400;17.260;2023-02-03T11:42:39;108969.25;;;21.73;59.22
52947;BME280;45776;40.400;17.260;2023-02-03T11:47:59;108383.91;;;20.47;63.91
52947;BME280;45776;40.400;17.260;2023-02-03T12:04:31;108697.81;;;21.40;57.13
52947;BME280;45776;40.400;17.260;2023-02-03T12:09:49;109310.38;;;22.79;53.61
52947;BME280;45776;40.400;17.260;2023-02-03T12:18:07;108910.31;;;22.12;53.15
52947;BME280;45776;40.400;17.260;2023-02-03T12:20:57;109007.59;;;22.30;53.34
52947;BME280;45776;40.400;17.260;2023-02-03T12:24:14;108822.88;;;21.94;53.83
52947;BME280;45776;40.400;17.260;2023-02-03T12:26:49;109543.66;;;23.41;51.42
52947;BME280;45776;40.400;17.260;2023-02-03T12:29:23;109473.69;;;23.39;50.42
52947;BME280;45776;40.400;17.260;2023-02-03T12:34:41;110133.38;;;24.89;48.55
52947;BME280;45776;40.400;17.260;2023-02-03T12:37:20;109641.81;;;24.09;47.92
52947;BME280;45776;40.400;17.260;2023-02-03T12:39:52;108985.25;;;22.82;48.89
52947;BME280;45776;40.400;17.260;2023-02-03T12:45:04;109603.78;;;24.02;47.66
52947;BME280;45776;40.400;17.260;2023-02-03T12:47:55;109762.53;;;24.44;46.51
52947;BME280;45776;40.400;17.260;2023-02-03T12:53:13;110059.00;;;25.04;45.78
52947;BME280;45776;40.400;17.260;2023-02-03T12:55:45;109667.00;;;24.44;45.19
52947;BME280;45776;40.400;17.260;2023-02-03T12:58:21;110138.75;;;25.49;43.31
52947;BME280;45776;40.400;17.260;2023-02-03T13:01:04;109852.50;;;24.94;43.89
52947;BME280;45776;40.400;17.260;2023-02-03T13:09:20;109862.84;;;25.07;43.19
52947;BME280;45776;40.400;17.260;2023-02-03T13:18:00;109347.88;;;24.29;42.23
52947;BME280;45776;40.400;17.260;2023-02-03T13:20:31;109585.75;;;24.67;42.34
52947;BME280;45776;40.400;17.260;2023-02-03T13:23:03;109268.81;;;24.01;43.90
52947;BME280;45776;40.400;17.260;2023-02-03T13:47:48;110076.19;;;25.74;42.83
52947;BME280;45776;40.400;17.260;2023-02-03T13:50:23;110026.91;;;25.55;44.01
52947;BME280;45776;40.400;17.260;2023-02-03T13:52:57;110560.03;;;26.68;42.69
52947;BME280;45776;40.400;17.260;2023-02-03T13:55:50;109107.19;;;23.94;43.28
52947;BME280;45776;40.400;17.260;2023-02-03T14:05:57;110443.41;;;26.73;41.31
52947;BME280;45776;40.400;17.260;2023-02-03T14:16:46;109607.03;;;25.15;41.44
52947;BME280;45776;40.400;17.260;2023-02-03T14:22:16;109659.25;;;25.15;42.76
52947;BME280;45776;40.400;17.260;2023-02-03T14:24:44;109814.53;;;25.49;42.03
52947;BME280;45776;40.400;17.260;2023-02-03T14:27:23;109630.78;;;25.14;42.36
52947;BME280;45776;40.400;17.260;2023-02-03T14:32:53;109376.91;;;24.59;42.47
52947;BME280;45776;40.400;17.260;2023-02-03T14:35:37;109565.13;;;24.97;42.02
52947;BME280;45776;40.400;17.260;2023-02-03T14:38:10;109168.53;;;24.22;43.05
52947;BME280;45776;40.400;17.260;2023-02-03T14:40:56;109221.38;;;24.36;42.22
52947;BME280;45776;40.400;17.260;2023-02-03T14:43:40;109804.94;;;25.42;42.55
52947;BME280;45776;40.400;17.260;2023-02-03T14:57:48;109838.66;;;25.66;40.64
52947;BME280;45776;40.400;17.260;2023-02-03T15:05:43;109170.69;;;24.33;41.88
52947;BME280;45776;40.400;17.260;2023-02-03T15:08:44;109476.84;;;24.91;42.22
52947;BME280;45776;40.400;17.260;2023-02-03T15:13:47;108933.28;;;23.87;43.27
52947;BME280;45776;40.400;17.260;2023-02-03T15:16:18;109134.44;;;24.09;44.41
52947;BME280;45776;40.400;17.260;2023-02-03T15:18:44;109084.44;;;23.96;44.76
52947;BME280;45776;40.400;17.260;2023-02-03T15:21:18;108855.53;;;23.46;45.53
52947;BME280;45776;40.400;17.260;2023-02-03T15:23:45;108968.06;;;23.66;45.56
52947;BME280;45776;40.400;17.260;2023-02-03T15:26:22;109037.66;;;23.81;45.33
52947;BME280;45776;40.400;17.260;2023-02-03T15:28:58;109082.59;;;23.88;45.04